sensor_id;sensor_type;location;lat;lon;timestamp;pressure;altitude;pressure_sealevel;temperature;humidity
77639;BME280;66802;52.574;14.398;2023-06-22T03:00:53;102019.94;;;17.85;75.49
77639;BME280;66802;52.574;14.398;2023-06-22T03:03:21;102033.09;;;17.81;75.53
77639;BME280;66802;52.574;14.398;2023-06-22T03:05:47;102026.44;;;17.76;75.79
77639;BME280;66802;52.574;14.398;2023-06-22T03:08:12;102034.97;;;17.73;76.15
77639;BME280;66802;52.574;14.398;2023-06-22T03:10:38;102026.94;;;17.71;76.20
77639;BME280;66802;52.574;14.398;2023-06-22T03:13:04;102030.19;;;17.75;76.27
77639;BME280;66802;52.574;14.398;2023-06-22T03:15:30;102034.13;;;17.80;76.93
77639;BME280;66802;52.574;14.398;2023-06-22T03:17:56;102028.13;;;17.85;76.83
77639;BME280;66802;52.574;14.398;2023-06-22T03:20:22;102027.81;;;17.88;76.84
77639;BME280;66802;52.574;14.398;2023-06-22T03:22:48;102037.03;;;17.87;76.71
77639;BME280;66802;52.574;14.398;2023-06-22T03:25:14;102043.50;;;17.86;77.37
77639;BME280;66802;52.574;14.398;2023-06-22T03:27:41;102034.28;;;17.87;77.25
77639;BME280;66802;52.574;14.398;2023-06-22T03:30:08;102046.75;;;17.90;77.35
77639;BME280;66802;52.574;14.398;2023-06-22T03:32:34;102042.31;;;17.88;77.07
77639;BME280;66802;52.574;14.398;2023-06-22T03:35:00;102041.66;;;17.95;76.82
77639;BME280;66802;52.574;14.398;2023-06-22T03:37:26;102041.97;;;18.00;76.14
77639;BME280;66802;52.574;14.398;2023-06-22T03:39:53;102035.00;;;18.05;76.16
77639;BME280;66802;52.574;14.398;2023-06-22T03:42:19;102044.38;;;18.11;75.97
77639;BME280;66802;52.574;14.398;2023-06-22T03:44:44;102037.00;;;18.19;76.19
77639;BME280;66802;52.574;14.398;2023-06-22T03:47:10;102039.75;;;18.28;76.06
77639;BME280;66802;52.574;14.398;2023-06-22T03:49:36;102046.91;;;18.37;76.11
77639;BME280;66802;52.574;14.398;2023-06-22T03:52:02;102045.88;;;18.46;76.18
77639;BME280;66802;52.574;14.398;2023-06-22T03:54:29;102047.38;;;18.56;76.11
77639;BME280;66802;52.574;14.398;2023-06-22T03:56:56;102046.19;;;18.67;76.02
77639;BME280;66802;52.574;14.398;2023-06-22T03:59:22;102043.41;;;18.75;76.15
77639;BME280;66802;52.574;14.398;2023-06-22T04:01:48;102040.66;;;18.83;76.35
77639;BME280;66802;52.574;14.398;2023-06-22T04:04:14;102038.94;;;18.90;76.74
77639;BME280;66802;52.574;14.398;2023-06-22T04:06:39;102044.38;;;18.99;76.33
77639;BME280;66802;52.574;14.398;2023-06-22T04:09:08;102028.75;;;19.07;75.98
77639;BME280;66802;52.574;14.398;2023-06-22T04:11:34;102032.97;;;19.18;75.84
77639;BME280;66802;52.574;14.398;2023-06-22T04:13:59;102033.31;;;19.23;75.63
77639;BME280;66802;52.574;14.398;2023-06-22T04:16:25;102028.81;;;19.30;75.90
77639;BME280;66802;52.574;14.398;2023-06-22T04:18:51;102030.81;;;19.36;76.16
77639;BME280;66802;52.574;14.398;2023-06-22T04:21:16;102025.13;;;19.46;75.82
77639;BME280;66802;52.574;14.398;2023-06-22T04:23:42;102025.78;;;19.48;76.34
77639;BME280;66802;52.574;14.398;2023-06-22T04:26:08;102024.78;;;19.49;75.85
77639;BME280;66802;52.574;14.398;2023-06-22T04:28:33;102023.38;;;19.53;75.75
77639;BME280;66802;52.574;14.398;2023-06-22T04:31:01;102020.59;;;19.61;75.67
77639;BME280;66802;52.574;14.398;2023-06-22T04:33:28;102018.84;;;19.68;75.43
77639;BME280;66802;52.574;14.398;2023-06-22T04:35:57;102025.28;;;19.75;75.28
77639;BME280;66802;52.574;14.398;2023-06-22T04:38:23;102034.66;;;19.81;75.50
77639;BME280;66802;52.574;14.398;2023-06-22T04:40:49;102033.25;;;19.85;75.81
77639;BME280;66802;52.574;14.398;2023-06-22T04:43:15;102028.09;;;19.90;75.67
77639;BME280;66802;52.574;14.398;2023-06-22T04:45:40;102021.19;;;19.94;75.65
77639;BME280;66802;52.574;14.398;2023-06-22T04:48:06;102029.72;;;19.99;75.62
77639;BME280;66802;52.574;14.398;2023-06-22T04:50:36;102030.38;;;20.01;75.60
77639;BME280;66802;52.574;14.398;2023-06-22T04:53:02;102028.88;;;19.98;76.17
77639;BME280;66802;52.574;14.398;2023-06-22T04:55:31;102030.38;;;20.01;76.46
77639;BME280;66802;52.574;14.398;2023-06-22T04:57:57;102040.06;;;20.12;76.57
77639;BME280;66802;52.574;14.398;2023-06-22T05:00:30;102050.09;;;20.19;76.48
77639;BME280;66802;52.574;14.398;2023-06-22T05:02:56;102049.78;;;20.14;76.14
77639;BME280;66802;52.574;14.398;2023-06-22T05:05:24;102058.00;;;20.14;76.13
77639;BME280;66802;52.574;14.398;2023-06-22T05:07:51;102054.25;;;20.15;76.33
77639;BME280;66802;52.574;14.398;2023-06-22T05:10:19;102058.00;;;20.14;76.57
77639;BME280;66802;52.574;14.398;2023-06-22T05:12:46;102055.00;;;20.24;76.06
77639;BME280;66802;52.574;14.398;2023-06-22T05:15:11;102064.22;;;20.31;76.85
77639;BME280;66802;52.574;14.398;2023-06-22T05:17:38;102066.91;;;20.39;76.75
77639;BME280;66802;52.574;14.398;2023-06-22T05:20:11;102055.47;;;20.50;76.32
77639;BME280;66802;52.574;14.398;2023-06-22T05:22:38;102059.06;;;20.51;75.29
77639;BME280;66802;52.574;14.398;2023-06-22T05:25:07;102059.75;;;20.53;76.62
77639;BME280;66802;52.574;14.398;2023-06-22T05:27:33;102056.59;;;20.56;76.37
77639;BME280;66802;52.574;14.398;2023-06-22T05:29:59;102052.75;;;20.50;74.28
77639;BME280;66802;52.574;14.398;2023-06-22T05:32:25;102060.47;;;20.47;73.49
77639;BME280;66802;52.574;14.398;2023-06-22T05:34:50;102066.56;;;20.34;73.89
77639;BME280;66802;52.574;14.398;2023-06-22T05:37:19;102077.44;;;20.27;74.14
77639;BME280;66802;52.574;14.398;2023-06-22T05:39:45;102071.44;;;20.09;74.08
77639;BME280;66802;52.574;14.398;2023-06-22T05:42:10;102069.16;;;20.13;73.99
77639;BME280;66802;52.574;14.398;2023-06-22T05:44:36;102068.44;;;20.19;74.39
77639;BME280;66802;52.574;14.398;2023-06-22T05:47:03;102068.47;;;20.33;74.38
77639;BME280;66802;52.574;14.398;2023-06-22T05:49:28;102070.34;;;20.18;75.81
77639;BME280;66802;52.574;14.398;2023-06-22T05:51:58;102064.16;;;20.16;76.30
77639;BME280;66802;52.574;14.398;2023-06-22T05:54:24;102061.84;;;20.28;76.23
77639;BME280;66802;52.574;14.398;2023-06-22T05:56:49;102075.22;;;20.46;74.02
77639;BME280;66802;52.574;14.398;2023-06-22T05:59:15;102077.34;;;20.44;72.78
77639;BME280;66802;52.574;14.398;2023-06-22T06:01:40;102084.63;;;20.51;73.01
77639;BME280;66802;52.574;14.398;2023-06-22T06:04:06;102084.25;;;20.69;72.68
77639;BME280;66802;52.574;14.398;2023-06-22T06:06:35;102079.66;;;20.84;70.49
77639;BME280;66802;52.574;14.398;2023-06-22T06:09:05;102095.25;;;20.98;69.71
77639;BME280;66802;52.574;14.398;2023-06-22T06:11:33;102092.31;;;21.14;68.33
77639;BME280;66802;52.574;14.398;2023-06-22T06:13:58;102098.03;;;21.28;68.51
77639;BME280;66802;52.574;14.398;2023-06-22T06:16:24;102089.16;;;21.47;69.23
77639;BME280;66802;52.574;14.398;2023-06-22T06:18:53;102081.81;;;21.69;66.46
77639;BME280;66802;52.574;14.398;2023-06-22T06:21:21;102087.28;;;21.83;64.99
77639;BME280;66802;52.574;14.398;2023-06-22T06:23:50;102089.22;;;21.90;65.26
77639;BME280;66802;52.574;14.398;2023-06-22T06:26:15;102100.88;;;21.92;64.04
77639;BME280;66802;52.574;14.398;2023-06-22T06:28:43;102085.72;;;22.17;62.83
77639;BME280;66802;52.574;14.398;2023-06-22T06:31:09;102090.94;;;22.33;61.41
77639;BME280;66802;52.574;14.398;2023-06-22T06:33:35;102093.91;;;22.60;62.68
77639;BME280;66802;52.574;14.398;2023-06-22T06:36:01;102099.72;;;22.71;61.13
77639;BME280;66802;52.574;14.398;2023-06-22T06:38:29;102092.19;;;22.80;61.63
77639;BME280;66802;52.574;14.398;2023-06-22T06:40:55;102094.03;;;22.51;59.42
77639;BME280;66802;52.574;14.398;2023-06-22T06:43:21;102094.03;;;22.02;60.21
77639;BME280;66802;52.574;14.398;2023-06-22T06:45:49;102087.91;;;22.28;60.37
77639;BME280;66802;52.574;14.398;2023-06-22T06:48:14;102088.63;;;22.65;60.82
77639;BME280;66802;52.574;14.398;2023-06-22T06:50:40;102091.16;;;22.87;61.59
77639;BME280;66802;52.574;14.398;2023-06-22T06:53:05;102091.19;;;22.94;60.56
77639;BME280;66802;52.574;14.398;2023-06-22T06:55:32;102089.66;;;22.85;58.72
77639;BME280;66802;52.574;14.398;2023-06-22T06:58:02;102087.72;;;22.79;58.54
77639;BME280;66802;52.574;14.398;2023-06-22T07:00:29;102095.63;;;22.88;57.36
77639;BME280;66802;52.574;14.398;2023-06-22T07:02:55;102084.63;;;22.95;56.50
77639;BME280;66802;52.574;14.398;2023-06-22T07:05:20;102088.38;;;22.81;56.68
77639;BME280;66802;52.574;14.398;2023-06-22T07:07:46;102080.81;;;22.96;56.34
77639;BME280;66802;52.574;14.398;2023-06-22T07:10:12;102073.59;;;22.95;55.78
77639;BME280;66802;52.574;14.398;2023-06-22T07:12:37;102075.09;;;22.91;56.79
77639;BME280;66802;52.574;14.398;2023-06-22T07:15:07;102080.44;;;23.06;56.16
77639;BME280;66802;52.574;14.398;2023-06-22T07:17:34;102072.13;;;23.34;55.89
77639;BME280;66802;52.574;14.398;2023-06-22T07:20:00;102070.34;;;23.67;55.70
77639;BME280;66802;52.574;14.398;2023-06-22T07:22:26;102068.94;;;24.11;52.31
77639;BME280;66802;52.574;14.398;2023-06-22T07:24:52;102066.84;;;24.32;51.78
77639;BME280;66802;52.574;14.398;2023-06-22T07:27:17;102056.88;;;24.31;51.32
77639;BME280;66802;52.574;14.398;2023-06-22T07:29:46;102049.00;;;24.28;50.71
77639;BME280;66802;52.574;14.398;2023-06-22T07:32:12;102053.88;;;24.53;50.28
77639;BME280;66802;52.574;14.398;2023-06-22T07:34:38;102051.72;;;24.68;49.58
77639;BME280;66802;52.574;14.398;2023-06-22T07:37:04;102053.81;;;24.86;49.61
77639;BME280;66802;52.574;14.398;2023-06-22T07:39:30;102050.72;;;24.43;50.66
77639;BME280;66802;52.574;14.398;2023-06-22T07:41:56;102044.66;;;24.92;51.10
77639;BME280;66802;52.574;14.398;2023-06-22T07:44:21;102052.84;;;25.25;51.40
77639;BME280;66802;52.574;14.398;2023-06-22T07:46:47;102046.66;;;25.29;48.17
77639;BME280;66802;52.574;14.398;2023-06-22T07:49:13;102046.50;;;25.11;48.58
77639;BME280;66802;52.574;14.398;2023-06-22T07:51:38;102050.16;;;25.05;47.68
77639;BME280;66802;52.574;14.398;2023-06-22T07:54:04;102041.88;;;25.50;47.42
77639;BME280;66802;52.574;14.398;2023-06-22T07:56:29;102043.97;;;25.92;45.10
77639;BME280;66802;52.574;14.398;2023-06-22T07:58:55;102039.47;;;25.60;45.08
77639;BME280;66802;52.574;14.398;2023-06-22T08:01:23;102041.31;;;25.79;43.95
77639;BME280;66802;52.574;14.398;2023-06-22T08:03:49;102039.69;;;26.21;42.35
77639;BME280;66802;52.574;14.398;2023-06-22T08:06:15;102036.25;;;26.26;43.33
77639;BME280;66802;52.574;14.398;2023-06-22T08:08:41;102032.88;;;26.24;42.25
77639;BME280;66802;52.574;14.398;2023-06-22T08:11:08;102037.88;;;26.08;42.87
77639;BME280;66802;52.574;14.398;2023-06-22T08:13:34;102030.00;;;26.37;42.22
77639;BME280;66802;52.574;14.398;2023-06-22T08:15:59;102039.72;;;26.64;42.43
77639;BME280;66802;52.574;14.398;2023-06-22T08:18:25;102031.25;;;27.02;41.90
77639;BME280;66802;52.574;14.398;2023-06-22T08:20:50;102034.19;;;26.46;41.32
77639;BME280;66802;52.574;14.398;2023-06-22T08:23:17;102029.06;;;26.18;39.66
77639;BME280;66802;52.574;14.398;2023-06-22T08:25:42;102027.44;;;26.78;39.99
77639;BME280;66802;52.574;14.398;2023-06-22T08:28:08;102021.31;;;26.95;41.41
77639;BME280;66802;52.574;14.398;2023-06-22T08:30:34;102032.38;;;27.31;41.21
77639;BME280;66802;52.574;14.398;2023-06-22T08:32:59;102024.91;;;27.61;40.10
77639;BME280;66802;52.574;14.398;2023-06-22T08:35:25;102017.94;;;27.71;39.72
77639;BME280;66802;52.574;14.398;2023-06-22T08:37:50;102011.50;;;28.00;40.10
77639;BME280;66802;52.574;14.398;2023-06-22T08:40:20;102008.69;;;27.77;39.29
77639;BME280;66802;52.574;14.398;2023-06-22T08:42:49;102020.53;;;27.54;38.07
77639;BME280;66802;52.574;14.398;2023-06-22T08:45:15;102017.69;;;26.51;40.80
77639;BME280;66802;52.574;14.398;2023-06-22T08:47:42;102016.44;;;26.29;40.73
77639;BME280;66802;52.574;14.398;2023-06-22T08:50:09;102020.44;;;25.76;41.16
77639;BME280;66802;52.574;14.398;2023-06-22T08:52:35;102022.88;;;25.66;41.54
77639;BME280;66802;52.574;14.398;2023-06-22T08:55:01;102020.59;;;26.13;42.16
77639;BME280;66802;52.574;14.398;2023-06-22T08:57:29;102022.97;;;26.09;42.57
77639;BME280;66802;52.574;14.398;2023-06-22T08:59:56;102023.44;;;26.06;42.94
77639;BME280;66802;52.574;14.398;2023-06-22T09:02:26;102018.09;;;26.36;42.54
77639;BME280;66802;52.574;14.398;2023-06-22T09:04:57;102029.91;;;25.56;42.26
77639;BME280;66802;52.574;14.398;2023-06-22T09:07:23;102018.94;;;25.42;42.72
77639;BME280;66802;52.574;14.398;2023-06-22T09:09:50;102020.34;;;25.58;42.16
77639;BME280;66802;52.574;14.398;2023-06-22T09:12:17;102015.84;;;25.64;43.41
77639;BME280;66802;52.574;14.398;2023-06-22T09:14:42;102008.72;;;25.81;42.88
77639;BME280;66802;52.574;14.398;2023-06-22T09:17:08;102008.53;;;25.76;42.43
77639;BME280;66802;52.574;14.398;2023-06-22T09:19:33;102005.25;;;25.86;43.55
77639;BME280;66802;52.574;14.398;2023-06-22T09:21:59;102000.03;;;26.02;43.64
77639;BME280;66802;52.574;14.398;2023-06-22T09:24:25;102014.91;;;25.76;42.80
77639;BME280;66802;52.574;14.398;2023-06-22T09:26:51;102004.88;;;25.82;42.58
77639;BME280;66802;52.574;14.398;2023-06-22T09:29:16;102004.66;;;25.84;44.01
77639;BME280;66802;52.574;14.398;2023-06-22T09:31:42;102004.00;;;25.50;44.06
77639;BME280;66802;52.574;14.398;2023-06-22T09:34:07;102001.50;;;25.80;43.16
77639;BME280;66802;52.574;14.398;2023-06-22T09:36:33;101999.38;;;25.75;43.49
77639;BME280;66802;52.574;14.398;2023-06-22T09:38:59;101996.53;;;25.89;43.90
77639;BME280;66802;52.574;14.398;2023-06-22T09:41:24;102001.88;;;26.08;43.97
77639;BME280;66802;52.574;14.398;2023-06-22T09:43:50;102002.63;;;26.22;43.98
77639;BME280;66802;52.574;14.398;2023-06-22T09:46:16;101990.94;;;26.45;43.50
77639;BME280;66802;52.574;14.398;2023-06-22T09:48:42;101993.47;;;26.46;43.15
77639;BME280;66802;52.574;14.398;2023-06-22T09:51:08;101988.94;;;26.52;42.67
77639;BME280;66802;52.574;14.398;2023-06-22T09:53:33;101993.84;;;26.93;42.29
77639;BME280;66802;52.574;14.398;2023-06-22T09:56:01;101987.41;;;27.41;41.19
77639;BME280;66802;52.574;14.398;2023-06-22T09:58:27;101981.19;;;27.87;40.15
77639;BME280;66802;52.574;14.398;2023-06-22T10:00:53;101987.63;;;28.11;39.17
77639;BME280;66802;52.574;14.398;2023-06-22T10:03:20;101995.34;;;28.09;38.72
77639;BME280;66802;52.574;14.398;2023-06-22T10:05:46;101991.81;;;27.90;39.40
77639;BME280;66802;52.574;14.398;2023-06-22T10:08:12;101989.00;;;27.18;41.31
77639;BME280;66802;52.574;14.398;2023-06-22T10:10:37;101988.66;;;26.78;40.95
77639;BME280;66802;52.574;14.398;2023-06-22T10:13:08;101999.28;;;27.00;41.92
77639;BME280;66802;52.574;14.398;2023-06-22T10:15:38;101989.78;;;27.07;42.74
77639;BME280;66802;52.574;14.398;2023-06-22T10:18:04;101989.34;;;27.10;41.74
77639;BME280;66802;52.574;14.398;2023-06-22T10:20:30;101994.22;;;27.26;40.64
77639;BME280;66802;52.574;14.398;2023-06-22T10:22:55;101997.84;;;27.27;41.18
77639;BME280;66802;52.574;14.398;2023-06-22T10:25:22;102001.34;;;27.04;39.95
77639;BME280;66802;52.574;14.398;2023-06-22T10:27:47;101995.25;;;26.77;39.98
77639;BME280;66802;52.574;14.398;2023-06-22T10:30:14;101989.50;;;26.97;41.05
77639;BME280;66802;52.574;14.398;2023-06-22T10:32:41;101987.44;;;26.93;40.95
77639;BME280;66802;52.574;14.398;2023-06-22T10:35:08;101981.19;;;27.27;39.56
77639;BME280;66802;52.574;14.398;2023-06-22T10:37:36;101988.22;;;27.30;37.89
77639;BME280;66802;52.574;14.398;2023-06-22T10:40:02;101989.47;;;27.64;38.38
77639;BME280;66802;52.574;14.398;2023-06-22T10:42:29;101994.44;;;27.73;38.73
77639;BME280;66802;52.574;14.398;2023-06-22T10:44:55;101989.75;;;27.85;39.71
77639;BME280;66802;52.574;14.398;2023-06-22T10:47:20;101985.16;;;27.79;39.16
77639;BME280;66802;52.574;14.398;2023-06-22T10:49:46;101986.25;;;27.78;38.34
77639;BME280;66802;52.574;14.398;2023-06-22T10:52:11;101988.38;;;27.65;38.47
77639;BME280;66802;52.574;14.398;2023-06-22T10:54:37;101979.75;;;27.54;38.29
77639;BME280;66802;52.574;14.398;2023-06-22T10:57:03;101980.19;;;27.40;39.79
77639;BME280;66802;52.574;14.398;2023-06-22T10:59:29;101973.03;;;27.32;38.39
77639;BME280;66802;52.574;14.398;2023-06-22T11:01:56;101975.44;;;27.58;38.62
77639;BME280;66802;52.574;14.398;2023-06-22T11:04:23;101971.78;;;27.46;39.06
77639;BME280;66802;52.574;14.398;2023-06-22T11:06:49;101966.19;;;27.65;38.59
77639;BME280;66802;52.574;14.398;2023-06-22T11:09:16;101967.06;;;27.77;38.30
77639;BME280;66802;52.574;14.398;2023-06-22T11:11:50;101959.69;;;27.94;38.45
77639;BME280;66802;52.574;14.398;2023-06-22T11:14:19;101955.97;;;28.00;38.69
77639;BME280;66802;52.574;14.398;2023-06-22T11:16:44;101954.31;;;28.22;38.09
77639;BME280;66802;52.574;14.398;2023-06-22T11:19:11;101957.41;;;28.03;38.58
77639;BME280;66802;52.574;14.398;2023-06-22T11:21:37;101950.25;;;27.72;39.38
77639;BME280;66802;52.574;14.398;2023-06-22T11:24:03;101951.94;;;27.73;38.54
77639;BME280;66802;52.574;14.398;2023-06-22T11:26:28;101940.50;;;28.04;39.03
77639;BME280;66802;52.574;14.398;2023-06-22T11:28:54;101936.53;;;28.23;38.27
77639;BME280;66802;52.574;14.398;2023-06-22T11:31:20;101937.66;;;28.22;38.47
77639;BME280;66802;52.574;14.398;2023-06-22T11:33:45;101921.22;;;28.09;38.23
77639;BME280;66802;52.574;14.398;2023-06-22T11:36:12;101915.06;;;28.30;39.20
77639;BME280;66802;52.574;14.398;2023-06-22T11:38:38;101906.81;;;28.47;38.75
77639;BME280;66802;52.574;14.398;2023-06-22T11:41:09;101919.53;;;28.31;38.10
77639;BME280;66802;52.574;14.398;2023-06-22T11:43:35;101915.50;;;27.92;38.24
77639;BME280;66802;52.574;14.398;2023-06-22T11:46:04;101914.22;;;28.18;39.61
77639;BME280;66802;52.574;14.398;2023-06-22T11:48:30;101908.88;;;27.82;38.69
77639;BME280;66802;52.574;14.398;2023-06-22T11:50:56;101911.31;;;27.90;39.65
77639;BME280;66802;52.574;14.398;2023-06-22T11:53:24;101916.50;;;27.86;40.13
77639;BME280;66802;52.574;14.398;2023-06-22T11:55:50;101912.00;;;27.74;39.46
77639;BME280;66802;52.574;14.398;2023-06-22T11:58:16;101903.19;;;27.65;40.16
77639;BME280;66802;52.574;14.398;2023-06-22T12:00:42;101896.81;;;28.11;40.93
77639;BME280;66802;52.574;14.398;2023-06-22T12:03:08;101899.47;;;28.06;38.80
77639;BME280;66802;52.574;14.398;2023-06-22T12:05:34;101900.22;;;27.90;38.67
77639;BME280;66802;52.574;14.398;2023-06-22T12:08:00;101898.84;;;28.04;40.07
77639;BME280;66802;52.574;14.398;2023-06-22T12:10:26;101920.84;;;28.29;39.22
77639;BME280;66802;52.574;14.398;2023-06-22T12:12:54;101920.00;;;28.28;39.06
77639;BME280;66802;52.574;14.398;2023-06-22T12:15:19;101908.47;;;28.60;40.48
77639;BME280;66802;52.574;14.398;2023-06-22T12:17:45;101906.03;;;28.75;38.74
77639;BME280;66802;52.574;14.398;2023-06-22T12:20:11;101909.28;;;28.72;39.05
77639;BME280;66802;52.574;14.398;2023-06-22T12:22:36;101900.22;;;27.90;38.99
77639;BME280;66802;52.574;14.398;2023-06-22T12:25:03;101901.25;;;28.12;38.93
77639;BME280;66802;52.574;14.398;2023-06-22T12:27:29;101902.94;;;28.48;39.24
77639;BME280;66802;52.574;14.398;2023-06-22T12:29:56;101905.00;;;28.53;37.87
77639;BME280;66802;52.574;14.398;2023-06-22T12:32:21;101891.88;;;28.77;37.70
77639;BME280;66802;52.574;14.398;2023-06-22T12:34:47;101891.59;;;28.90;38.80
77639;BME280;66802;52.574;14.398;2023-06-22T12:37:12;101899.25;;;29.11;38.75
77639;BME280;66802;52.574;14.398;2023-06-22T12:39:40;101883.34;;;29.23;38.73
77639;BME280;66802;52.574;14.398;2023-06-22T12:42:06;101877.03;;;29.28;37.81
77639;BME280;66802;52.574;14.398;2023-06-22T12:44:37;101875.63;;;29.42;37.27
77639;BME280;66802;52.574;14.398;2023-06-22T12:47:03;101886.28;;;28.88;37.52
77639;BME280;66802;52.574;14.398;2023-06-22T12:49:29;101875.03;;;28.95;38.43
77639;BME280;66802;52.574;14.398;2023-06-22T12:51:54;101869.25;;;29.13;37.35
77639;BME280;66802;52.574;14.398;2023-06-22T12:54:20;101872.06;;;28.85;37.89
77639;BME280;66802;52.574;14.398;2023-06-22T12:56:46;101869.66;;;29.05;37.72
77639;BME280;66802;52.574;14.398;2023-06-22T12:59:12;101870.13;;;28.85;38.77
77639;BME280;66802;52.574;14.398;2023-06-22T13:01:37;101865.53;;;29.08;38.49
77639;BME280;66802;52.574;14.398;2023-06-22T13:04:03;101870.19;;;29.19;39.39
77639;BME280;66802;52.574;14.398;2023-06-22T13:06:29;101868.66;;;28.83;37.90
77639;BME280;66802;52.574;14.398;2023-06-22T13:08:55;101868.22;;;29.02;37.98
77639;BME280;66802;52.574;14.398;2023-06-22T13:11:20;101858.72;;;29.15;38.43
77639;BME280;66802;52.574;14.398;2023-06-22T13:13:46;101856.97;;;29.26;37.87
77639;BME280;66802;52.574;14.398;2023-06-22T13:16:12;101854.66;;;29.23;37.42
77639;BME280;66802;52.574;14.398;2023-06-22T13:18:37;101848.25;;;29.22;38.30
77639;BME280;66802;52.574;14.398;2023-06-22T13:21:03;101846.50;;;29.33;39.85
77639;BME280;66802;52.574;14.398;2023-06-22T13:23:29;101839.53;;;29.47;38.38
77639;BME280;66802;52.574;14.398;2023-06-22T13:25:55;101835.34;;;29.61;37.36
77639;BME280;66802;52.574;14.398;2023-06-22T13:28:21;101832.22;;;29.41;37.39
77639;BME280;66802;52.574;14.398;2023-06-22T13:30:47;101834.03;;;29.19;37.14
77639;BME280;66802;52.574;14.398;2023-06-22T13:33:13;101829.38;;;28.79;38.51
77639;BME280;66802;52.574;14.398;2023-06-22T13:35:39;101820.88;;;28.57;38.63
77639;BME280;66802;52.574;14.398;2023-06-22T13:38:05;101821.88;;;28.51;38.70
77639;BME280;66802;52.574;14.398;2023-06-22T13:40:31;101823.72;;;28.74;37.90
77639;BME280;66802;52.574;14.398;2023-06-22T13:42:56;101819.25;;;28.73;38.39
77639;BME280;66802;52.574;14.398;2023-06-22T13:45:22;101812.03;;;28.60;38.11
77639;BME280;66802;52.574;14.398;2023-06-22T13:47:48;101818.00;;;28.52;38.93
77639;BME280;66802;52.574;14.398;2023-06-22T13:50:14;101820.41;;;28.77;38.15
77639;BME280;66802;52.574;14.398;2023-06-22T13:52:39;101813.09;;;28.71;37.53
77639;BME280;66802;52.574;14.398;2023-06-22T13:55:05;101810.63;;;28.86;37.57
77639;BME280;66802;52.574;14.398;2023-06-22T13:57:35;101806.50;;;28.77;37.80
77639;BME280;66802;52.574;14.398;2023-06-22T14:00:01;101811.63;;;28.68;37.61
77639;BME280;66802;52.574;14.398;2023-06-22T14:02:29;101804.75;;;28.99;37.39
77639;BME280;66802;52.574;14.398;2023-06-22T14:04:54;101800.91;;;29.17;37.57
77639;BME280;66802;52.574;14.398;2023-06-22T14:07:20;101805.16;;;28.91;37.43
77639;BME280;66802;52.574;14.398;2023-06-22T14:09:46;101802.38;;;28.91;37.29
77639;BME280;66802;52.574;14.398;2023-06-22T14:12:12;101798.38;;;29.16;37.00
77639;BME280;66802;52.574;14.398;2023-06-22T14:14:38;101800.66;;;29.19;36.70
77639;BME280;66802;52.574;14.398;2023-06-22T14:17:04;101796.44;;;29.16;36.53
77639;BME280;66802;52.574;14.398;2023-06-22T14:19:30;101799.84;;;28.90;37.06
77639;BME280;66802;52.574;14.398;2023-06-22T14:21:56;101796.31;;;28.94;37.37
77639;BME280;66802;52.574;14.398;2023-06-22T14:24:23;101790.38;;;29.19;37.64
77639;BME280;66802;52.574;14.398;2023-06-22T14:26:49;101789.63;;;29.40;38.61
77639;BME280;66802;52.574;14.398;2023-06-22T14:29:14;101781.59;;;29.61;37.07
77639;BME280;66802;52.574;14.398;2023-06-22T14:31:40;101776.09;;;29.32;37.59
77639;BME280;66802;52.574;14.398;2023-06-22T14:34:06;101771.75;;;29.20;36.66
77639;BME280;66802;52.574;14.398;2023-06-22T14:36:31;101763.72;;;29.07;37.31
77639;BME280;66802;52.574;14.398;2023-06-22T14:38:57;101759.75;;;29.02;36.67
77639;BME280;66802;52.574;14.398;2023-06-22T14:41:22;101757.16;;;28.96;37.63
77639;BME280;66802;52.574;14.398;2023-06-22T14:43:50;101755.38;;;29.07;37.24
77639;BME280;66802;52.574;14.398;2023-06-22T14:46:17;101746.72;;;28.75;37.68
77639;BME280;66802;52.574;14.398;2023-06-22T14:48:43;101742.13;;;28.80;38.35
77639;BME280;66802;52.574;14.398;2023-06-22T14:51:09;101741.78;;;29.10;38.32
77639;BME280;66802;52.574;14.398;2023-06-22T14:53:36;101742.47;;;29.00;38.32
77639;BME280;66802;52.574;14.398;2023-06-22T14:56:02;101723.41;;;29.26;38.03
77639;BME280;66802;52.574;14.398;2023-06-22T14:58:31;101728.91;;;29.37;38.19
77639;BME280;66802;52.574;14.398;2023-06-22T15:01:04;101719.97;;;28.85;38.33
77639;BME280;66802;52.574;14.398;2023-06-22T15:03:34;101708.16;;;29.12;37.72
77639;BME280;66802;52.574;14.398;2023-06-22T15:06:01;101708.69;;;28.92;38.02
77639;BME280;66802;52.574;14.398;2023-06-22T15:08:28;101713.97;;;28.77;38.28
77639;BME280;66802;52.574;14.398;2023-06-22T15:10:54;101708.19;;;28.66;38.69
77639;BME280;66802;52.574;14.398;2023-06-22T15:13:20;101704.22;;;28.46;38.59
77639;BME280;66802;52.574;14.398;2023-06-22T15:15:46;101701.53;;;28.51;38.44
77639;BME280;66802;52.574;14.398;2023-06-22T15:18:16;101693.91;;;28.75;38.26
77639;BME280;66802;52.574;14.398;2023-06-22T15:20:42;101701.00;;;28.82;37.88
77639;BME280;66802;52.574;14.398;2023-06-22T15:23:11;101697.44;;;28.70;37.96
77639;BME280;66802;52.574;14.398;2023-06-22T15:25:37;101697.84;;;28.62;38.55
77639;BME280;66802;52.574;14.398;2023-06-22T15:28:03;101691.53;;;28.66;38.19
77639;BME280;66802;52.574;14.398;2023-06-22T15:30:29;101699.00;;;28.94;39.33
77639;BME280;66802;52.574;14.398;2023-06-22T15:32:56;101673.03;;;29.05;36.72
77639;BME280;66802;52.574;14.398;2023-06-22T15:35:22;101665.84;;;28.59;38.19